createdAt,value
2024-01-11T00:00:42.959Z,27.64
2024-01-11T00:01:42.892Z,27.61
2024-01-11T00:02:42.961Z,27.61
2024-01-11T00:03:42.888Z,27.60
2024-01-11T00:04:42.925Z,27.59
2024-01-11T00:05:43.085Z,27.60
2024-01-11T00:06:42.995Z,27.59
2024-01-11T00:07:42.899Z,27.58
2024-01-11T00:08:42.915Z,27.58
2024-01-11T00:09:42.923Z,27.56
2024-01-11T00:10:42.909Z,27.57
2024-01-11T00:11:43.016Z,27.58
2024-01-11T00:12:42.932Z,27.57
2024-01-11T00:13:42.905Z,27.57
2024-01-11T00:14:42.926Z,27.57
2024-01-11T00:15:43.001Z,27.56
2024-01-11T00:16:42.910Z,27.52
2024-01-11T00:17:43.209Z,27.54
2024-01-11T00:18:42.980Z,27.54
2024-01-11T00:19:42.928Z,27.50
2024-01-11T00:20:43.011Z,27.50
2024-01-11T00:21:42.928Z,27.51
2024-01-11T00:22:42.936Z,27.52
2024-01-11T00:23:42.973Z,27.48
2024-01-11T00:24:42.926Z,27.51
2024-01-11T00:25:42.929Z,27.48
2024-01-11T00:26:42.990Z,27.50
2024-01-11T00:27:42.934Z,27.51
2024-01-11T00:28:42.932Z,27.52
2024-01-11T00:29:42.951Z,27.50
2024-01-11T00:30:43.004Z,27.47
2024-01-11T00:31:43.022Z,27.49
2024-01-11T00:32:43.079Z,27.46
2024-01-11T00:33:43.113Z,27.47
2024-01-11T00:34:42.954Z,27.45
2024-01-11T00:35:43.091Z,27.45
2024-01-11T00:36:42.958Z,27.47
2024-01-11T00:37:42.953Z,27.45
2024-01-11T00:38:43.002Z,27.45
2024-01-11T00:39:42.962Z,27.43
2024-01-11T00:40:42.970Z,27.42
2024-01-11T00:41:43.031Z,27.45
2024-01-11T00:42:42.976Z,27.44
2024-01-11T00:43:42.973Z,27.46
2024-01-11T00:44:42.980Z,27.45
2024-01-11T00:45:42.989Z,27.41
2024-01-11T00:46:42.946Z,27.43
2024-01-11T00:47:43.088Z,27.41
2024-01-11T00:48:43.059Z,27.42
2024-01-11T00:49:43.009Z,27.40
2024-01-11T00:50:43.035Z,27.41
2024-01-11T00:51:42.971Z,27.41
2024-01-11T00:52:42.967Z,27.41
2024-01-11T00:53:42.983Z,27.39
2024-01-11T00:54:42.998Z,27.40
2024-01-11T00:55:43.006Z,27.40
2024-01-11T00:56:43.023Z,27.36
2024-01-11T00:57:42.985Z,27.38
2024-01-11T00:58:43.012Z,27.41
2024-01-11T00:59:42.983Z,27.40
2024-01-11T01:00:43.029Z,27.38
2024-01-11T01:01:42.995Z,27.37
2024-01-11T01:02:43.046Z,27.36
2024-01-11T01:03:43.045Z,27.35
2024-01-11T01:04:42.985Z,27.39
2024-01-11T01:05:43.074Z,27.39
2024-01-11T01:06:43.102Z,27.37
2024-01-11T01:07:43.001Z,27.38
2024-01-11T01:08:43.053Z,27.36
2024-01-11T01:09:43.022Z,27.36
2024-01-11T01:10:43.077Z,27.38
2024-01-11T01:11:43.137Z,27.36
2024-01-11T01:12:43.068Z,27.34
2024-01-11T01:13:43.086Z,27.34
2024-01-11T01:14:43.168Z,27.36
2024-01-11T01:15:43.140Z,27.35
2024-01-11T01:16:43.130Z,27.37
2024-01-11T01:17:43.287Z,27.34
2024-01-11T01:18:43.254Z,27.33
2024-01-11T01:19:43.186Z,27.33
2024-01-11T01:20:43.453Z,27.33
2024-01-11T01:21:43.226Z,27.35
2024-01-11T01:22:43.235Z,27.38
2024-01-11T01:23:43.309Z,27.38
2024-01-11T01:24:43.367Z,27.35
2024-01-11T01:25:43.358Z,27.37
2024-01-11T01:26:43.396Z,27.37
2024-01-11T01:27:43.417Z,27.35
2024-01-11T01:28:43.396Z,27.34
2024-01-11T01:29:43.509Z,27.34
2024-01-11T01:30:43.487Z,27.36
2024-01-11T01:31:43.456Z,27.35
2024-01-11T01:32:43.713Z,27.35
2024-01-11T01:33:43.613Z,27.35
2024-01-11T01:34:44.725Z,27.34
2024-01-11T01:35:43.646Z,27.32
2024-01-11T01:36:43.541Z,27.30
2024-01-11T01:37:43.560Z,27.31
2024-01-11T01:38:43.640Z,27.31
2024-01-11T01:39:43.629Z,27.32
2024-01-11T01:40:43.632Z,27.32
2024-01-11T01:41:43.656Z,27.33
2024-01-11T01:42:43.626Z,27.33
2024-01-11T01:43:43.632Z,27.33
2024-01-11T01:44:43.706Z,27.30
2024-01-11T01:45:44.081Z,27.33
2024-01-11T01:46:43.721Z,27.32
2024-01-11T01:47:43.786Z,27.32
2024-01-11T01:48:43.816Z,27.32
2024-01-11T01:49:43.773Z,27.33
2024-01-11T01:50:43.833Z,27.35
2024-01-11T01:51:43.743Z,27.33
2024-01-11T01:52:43.755Z,27.32
2024-01-11T01:53:43.787Z,27.35
2024-01-11T01:54:43.777Z,27.35
2024-01-11T01:55:43.822Z,27.33
2024-01-11T01:56:43.853Z,27.33
2024-01-11T01:57:43.831Z,27.34
2024-01-11T01:58:43.834Z,27.33
2024-01-11T01:59:43.854Z,27.33
2024-01-11T02:00:43.937Z,27.32
2024-01-11T02:01:43.914Z,27.32
2024-01-11T02:02:44.602Z,27.31
2024-01-11T02:03:43.985Z,27.32
2024-01-11T02:04:43.913Z,27.33
2024-01-11T02:05:44.134Z,27.33
2024-01-11T02:06:44.107Z,27.33
2024-01-11T02:07:43.962Z,27.33
2024-01-11T02:08:44.025Z,27.34
2024-01-11T02:09:44.029Z,27.33
2024-01-11T02:10:44.092Z,27.32
2024-01-11T02:11:44.105Z,27.32
2024-01-11T02:12:44.075Z,27.31
2024-01-11T02:13:44.108Z,27.33
2024-01-11T02:14:44.181Z,27.33
2024-01-11T02:15:44.201Z,27.35
2024-01-11T02:16:44.199Z,27.33
2024-01-11T02:17:44.483Z,27.33
2024-01-11T02:18:44.228Z,27.32
2024-01-11T02:19:44.240Z,27.31
2024-01-11T02:20:44.460Z,27.31
2024-01-11T02:21:44.272Z,27.33
2024-01-11T02:22:44.266Z,27.31
2024-01-11T02:23:45.098Z,27.32
2024-01-11T02:24:44.322Z,27.31
2024-01-11T02:25:44.389Z,27.33
2024-01-11T02:26:44.423Z,27.33
2024-01-11T02:27:44.413Z,27.30
2024-01-11T02:28:44.450Z,27.32
2024-01-11T02:29:44.637Z,27.29
2024-01-11T02:30:44.514Z,27.30
2024-01-11T02:31:44.486Z,27.29
2024-01-11T02:32:44.583Z,27.29
2024-01-11T02:33:44.582Z,27.30
2024-01-11T02:34:44.569Z,27.29
2024-01-11T02:35:47.681Z,27.30
2024-01-11T02:36:44.574Z,27.30
2024-01-11T02:37:44.582Z,27.31
2024-01-11T02:38:44.658Z,27.31
2024-01-11T02:39:44.576Z,27.31
2024-01-11T02:40:44.602Z,27.28
2024-01-11T02:41:44.633Z,27.28
2024-01-11T02:42:44.644Z,27.30
2024-01-11T02:43:44.589Z,27.30
2024-01-11T02:44:44.581Z,27.31
2024-01-11T02:45:44.677Z,27.28
2024-01-11T02:46:44.574Z,27.30
2024-01-11T02:47:44.703Z,27.30
2024-01-11T02:48:44.692Z,27.31
2024-01-11T02:49:44.584Z,27.29
2024-01-11T02:50:44.700Z,27.30
2024-01-11T02:51:44.620Z,27.31
2024-01-11T02:52:44.587Z,27.31
2024-01-11T02:53:44.644Z,27.28
2024-01-11T02:54:44.585Z,27.28
2024-01-11T02:55:44.636Z,27.28
2024-01-11T02:56:44.673Z,27.30
2024-01-11T02:57:44.594Z,27.28
2024-01-11T02:58:44.594Z,27.28
2024-01-11T02:59:44.606Z,27.28
2024-01-11T03:00:44.617Z,27.29
2024-01-11T03:01:44.599Z,27.27
2024-01-11T03:02:44.673Z,27.30
2024-01-11T03:03:44.598Z,27.28
2024-01-11T03:04:44.604Z,27.27
2024-01-11T03:05:44.663Z,27.28
2024-01-11T03:06:44.654Z,27.28
2024-01-11T03:07:44.612Z,27.28
2024-01-11T03:08:44.645Z,27.26
2024-01-11T03:09:44.600Z,27.25
2024-01-11T03:10:44.618Z,27.27
2024-01-11T03:11:44.633Z,27.28
2024-01-11T03:12:44.623Z,27.27
2024-01-11T03:13:44.629Z,27.25
2024-01-11T03:14:44.648Z,27.27
2024-01-11T03:15:44.644Z,27.27
2024-01-11T03:16:44.653Z,27.26
2024-01-11T03:17:44.759Z,27.25
2024-01-11T03:18:44.776Z,27.28
2024-01-11T03:19:44.662Z,27.27
2024-01-11T03:20:44.682Z,27.27
2024-01-11T03:21:44.630Z,27.26
2024-01-11T03:22:44.635Z,27.27
2024-01-11T03:23:44.686Z,27.29
2024-01-11T03:24:44.669Z,27.26
2024-01-11T03:25:44.660Z,27.28
2024-01-11T03:26:44.805Z,27.27
2024-01-11T03:27:44.654Z,27.27
2024-01-11T03:28:44.643Z,27.28
2024-01-11T03:29:44.698Z,27.25
2024-01-11T03:30:45.042Z,27.26
2024-01-11T03:31:44.644Z,27.26
2024-01-11T03:32:44.782Z,27.27
2024-01-11T03:33:44.778Z,27.25
2024-01-11T03:34:44.659Z,27.25
2024-01-11T03:35:44.678Z,27.27
2024-01-11T03:36:44.651Z,27.22
2024-01-11T03:37:44.646Z,27.21
2024-01-11T03:38:44.698Z,27.23
2024-01-11T03:39:44.668Z,27.26
2024-01-11T03:40:44.686Z,27.23
2024-01-11T03:41:44.693Z,27.22
2024-01-11T03:42:44.650Z,27.23
2024-01-11T03:43:44.659Z,27.23
2024-01-11T03:44:44.712Z,27.23
2024-01-11T03:45:44.665Z,27.22
2024-01-11T03:46:44.672Z,27.22
2024-01-11T03:47:44.807Z,27.21
2024-01-11T03:48:44.779Z,27.19
2024-01-11T03:49:44.666Z,27.19
2024-01-11T03:50:44.743Z,27.21
2024-01-11T03:51:44.661Z,27.22
2024-01-11T03:52:44.696Z,27.21
2024-01-11T03:53:44.732Z,27.22
2024-01-11T03:54:44.683Z,27.21
2024-01-11T03:55:44.674Z,27.21
2024-01-11T03:56:44.825Z,27.22
2024-01-11T03:57:44.685Z,27.21
2024-01-11T03:58:44.679Z,27.20
2024-01-11T03:59:44.731Z,27.21
2024-01-11T04:00:44.798Z,27.21
2024-01-11T04:01:44.696Z,27.21
2024-01-11T04:02:44.815Z,27.20
2024-01-11T04:03:44.704Z,27.19
2024-01-11T04:04:44.699Z,27.18
2024-01-11T04:05:44.917Z,27.17
2024-01-11T04:06:44.718Z,27.19
2024-01-11T04:07:44.701Z,27.19
2024-01-11T04:08:44.778Z,27.20
2024-01-11T04:09:44.691Z,27.16
2024-01-11T04:10:44.747Z,27.17
2024-01-11T04:11:44.761Z,27.15
2024-01-11T04:12:44.740Z,27.12
2024-01-11T04:13:44.763Z,27.15
2024-01-11T04:14:44.780Z,27.15
2024-01-11T04:15:44.816Z,27.15
2024-01-11T04:16:44.825Z,27.14
2024-01-11T04:17:44.928Z,27.13
2024-01-11T04:18:44.952Z,27.12
2024-01-11T04:19:44.908Z,27.10
2024-01-11T04:20:45.006Z,27.16
2024-01-11T04:21:44.963Z,27.12
2024-01-11T04:22:44.984Z,27.12
2024-01-11T04:23:45.020Z,27.13
2024-01-11T04:24:45.021Z,27.14
2024-01-11T04:25:45.036Z,27.13
2024-01-11T04:26:45.102Z,27.10
2024-01-11T04:27:45.084Z,27.10
2024-01-11T04:28:45.093Z,27.11
2024-01-11T04:29:45.123Z,27.11
2024-01-11T04:30:45.144Z,27.09
2024-01-11T04:31:45.130Z,27.10
2024-01-11T04:32:45.271Z,27.11
2024-01-11T04:33:45.245Z,27.10
2024-01-11T04:34:45.181Z,27.09
2024-01-11T04:35:45.280Z,27.07
2024-01-11T04:36:45.210Z,27.06
2024-01-11T04:37:45.232Z,27.08
2024-01-11T04:38:45.308Z,27.08
2024-01-11T04:39:45.267Z,27.09
2024-01-11T04:40:45.290Z,27.07
2024-01-11T04:41:45.339Z,27.08
2024-01-11T04:42:45.350Z,27.09
2024-01-11T04:43:45.377Z,27.10
2024-01-11T04:44:45.487Z,27.08
2024-01-11T04:45:45.520Z,27.11
2024-01-11T04:46:45.442Z,27.08
2024-01-11T04:47:45.642Z,27.10
2024-01-11T04:48:45.617Z,27.12
2024-01-11T04:49:45.510Z,27.11
2024-01-11T04:50:45.582Z,27.11
2024-01-11T04:51:45.582Z,27.11
2024-01-11T04:52:45.627Z,27.11
2024-01-11T04:53:45.718Z,27.11
2024-01-11T04:54:45.633Z,27.11
2024-01-11T04:55:45.732Z,27.11
2024-01-11T04:57:53.014Z,27.17
2024-01-11T04:58:53.014Z,27.12
2024-01-11T04:59:53.015Z,27.14
2024-01-11T05:00:53.092Z,27.15
2024-01-11T05:01:53.045Z,27.14
2024-01-11T05:02:53.071Z,27.19
2024-01-11T05:03:53.070Z,27.17
2024-01-11T05:04:53.037Z,27.17
2024-01-11T05:05:53.114Z,27.19
2024-01-11T05:06:53.145Z,27.19
2024-01-11T05:07:53.092Z,27.16
2024-01-11T05:08:53.027Z,27.16
2024-01-11T05:09:53.061Z,27.17
2024-01-11T05:10:53.036Z,27.18
2024-01-11T05:11:53.029Z,27.19
2024-01-11T05:12:53.061Z,27.19
2024-01-11T05:13:53.044Z,27.19
2024-01-11T05:14:53.074Z,27.19
2024-01-11T05:15:53.081Z,27.17
2024-01-11T05:16:53.083Z,27.18
2024-01-11T05:17:53.082Z,27.18
2024-01-11T05:18:53.180Z,27.17
2024-01-11T05:19:53.041Z,27.17
2024-01-11T05:20:53.123Z,27.19
2024-01-11T05:21:53.045Z,27.19
2024-01-11T05:22:53.045Z,27.18
2024-01-11T05:23:53.070Z,27.19
2024-01-11T05:24:53.086Z,27.22
2024-01-11T05:25:53.095Z,27.22
2024-01-11T05:26:53.081Z,27.21
2024-01-11T05:27:53.060Z,27.22
2024-01-11T05:28:53.053Z,27.22
2024-01-11T05:29:53.061Z,27.22
2024-01-11T05:30:53.133Z,27.24
2024-01-11T05:31:53.200Z,27.24
2024-01-11T05:32:53.138Z,27.24
2024-01-11T05:33:53.219Z,27.26
2024-01-11T05:34:53.093Z,27.26
2024-01-11T05:35:53.075Z,27.27
2024-01-11T05:36:53.084Z,27.28
2024-01-11T05:37:53.106Z,27.29
2024-01-11T05:38:53.064Z,27.26
2024-01-11T05:39:53.122Z,27.26
2024-01-11T05:40:53.079Z,27.26
2024-01-11T05:41:53.077Z,27.28
2024-01-11T05:42:53.090Z,27.27
2024-01-11T05:43:53.079Z,27.25
2024-01-11T05:44:53.088Z,27.22
2024-01-11T05:45:53.093Z,27.25
2024-01-11T05:46:53.084Z,27.25
2024-01-11T05:47:53.177Z,27.27
2024-01-11T05:48:53.160Z,27.26
2024-01-11T05:49:53.072Z,27.28
2024-01-11T05:50:53.095Z,27.27
2024-01-11T05:51:53.103Z,27.24
2024-01-11T05:52:53.098Z,27.24
2024-01-11T05:53:53.123Z,27.20
2024-01-11T05:54:53.204Z,27.21
2024-01-11T05:55:55.213Z,27.21
2024-01-11T05:56:53.227Z,27.20
2024-01-11T05:57:53.262Z,27.19
2024-01-11T05:58:53.326Z,27.20
2024-01-11T05:59:53.335Z,27.21
2024-01-11T06:00:53.488Z,27.20
2024-01-11T06:01:53.405Z,27.19
2024-01-11T06:02:53.415Z,27.19
2024-01-11T06:03:53.539Z,27.22
2024-01-11T06:04:53.471Z,27.17
2024-01-11T06:05:53.604Z,27.16
2024-01-11T06:06:53.542Z,27.16
2024-01-11T06:07:53.601Z,27.18
2024-01-11T06:08:53.634Z,27.19
2024-01-11T06:09:53.759Z,27.13
2024-01-11T06:10:53.673Z,27.18
2024-01-11T06:11:53.743Z,27.20
2024-01-11T06:12:53.784Z,27.21
2024-01-11T06:13:53.799Z,27.21
2024-01-11T06:14:53.838Z,27.20
2024-01-11T06:15:53.880Z,27.23
2024-01-11T06:16:53.922Z,27.26
2024-01-11T06:17:54.142Z,27.21
2024-01-11T06:18:54.068Z,27.22
2024-01-11T06:19:54.017Z,27.24
2024-01-11T06:20:54.085Z,27.25
2024-01-11T06:21:54.099Z,27.25
2024-01-11T06:22:54.155Z,27.26
2024-01-11T06:23:54.189Z,27.27
2024-01-11T06:24:54.217Z,27.27
2024-01-11T06:25:54.252Z,27.25
2024-01-11T06:26:54.293Z,27.31
2024-01-11T06:27:54.325Z,27.31
2024-01-11T06:28:54.386Z,27.33
2024-01-11T06:29:54.430Z,27.36
2024-01-11T06:30:54.516Z,27.47
2024-01-11T06:31:54.491Z,27.60
2024-01-11T06:32:54.603Z,27.60
2024-01-11T06:33:54.682Z,28.23
2024-01-11T06:35:17.208Z,30.67
2024-01-11T06:35:54.660Z,31.49
2024-01-11T06:36:55.206Z,32.28
2024-01-11T06:37:54.630Z,32.28
2024-01-11T06:38:54.657Z,32.35
2024-01-11T06:39:54.601Z,32.51
2024-01-11T06:40:54.630Z,32.77
2024-01-11T06:41:54.695Z,33.01
2024-01-11T06:42:54.647Z,33.31
2024-01-11T06:43:54.624Z,33.10
2024-01-11T06:44:54.657Z,33.35
2024-01-11T06:45:54.635Z,33.42
2024-01-11T06:46:54.635Z,33.40
2024-01-11T06:47:54.736Z,33.57
2024-01-11T06:48:54.709Z,33.90
2024-01-11T06:49:54.686Z,33.77
2024-01-11T06:50:54.698Z,33.96
2024-01-11T06:51:54.665Z,33.56
2024-01-11T06:52:54.644Z,33.62
2024-01-11T06:53:54.757Z,33.76
2024-01-11T06:54:54.661Z,33.65
2024-01-11T06:55:54.690Z,33.80
2024-01-11T06:56:54.650Z,33.68
2024-01-11T06:57:54.680Z,33.97
2024-01-11T06:58:54.651Z,33.89
2024-01-11T06:59:54.745Z,33.77
2024-01-11T07:00:54.672Z,34.00
2024-01-11T07:01:54.661Z,34.05
2024-01-11T07:02:54.669Z,34.78
2024-01-11T07:03:54.713Z,33.95
2024-01-11T07:04:54.703Z,34.14
2024-01-11T07:05:54.798Z,34.16
2024-01-11T07:06:54.766Z,34.16
2024-01-11T07:07:54.771Z,34.32
2024-01-11T07:08:54.796Z,34.56
2024-01-11T07:09:54.792Z,34.28
2024-01-11T07:10:54.817Z,34.35
2024-01-11T07:11:54.845Z,34.48
2024-01-11T07:12:54.841Z,34.46
2024-01-11T07:13:54.876Z,34.59
2024-01-11T07:14:54.872Z,34.62
2024-01-11T07:15:54.914Z,34.55
2024-01-11T07:16:54.922Z,34.55
2024-01-11T07:17:55.127Z,34.81
2024-01-11T07:18:55.012Z,34.69
2024-01-11T07:19:55.029Z,34.68
2024-01-11T07:20:55.114Z,34.62
2024-01-11T07:21:55.027Z,34.80
2024-01-11T07:22:54.984Z,34.63
2024-01-11T07:23:55.126Z,34.74
2024-01-11T07:24:55.047Z,34.31
2024-01-11T07:25:55.029Z,34.61
2024-01-11T07:26:55.354Z,34.35
2024-01-11T07:27:55.090Z,34.74
2024-01-11T07:28:55.083Z,34.51
2024-01-11T07:29:55.207Z,34.56
2024-01-11T07:30:55.227Z,34.63
2024-01-11T07:31:55.186Z,34.55
2024-01-11T07:32:55.355Z,35.02
2024-01-11T07:33:55.255Z,34.92
2024-01-11T07:34:55.218Z,34.20
2024-01-11T07:35:55.365Z,34.53
2024-01-11T07:36:55.721Z,34.71
2024-01-11T07:37:55.227Z,34.80
2024-01-11T07:38:56.254Z,34.96
2024-01-11T07:39:55.389Z,34.90
2024-01-11T07:40:55.358Z,34.79
2024-01-11T07:41:55.426Z,34.48
2024-01-11T07:42:55.409Z,34.37
2024-01-11T07:43:56.279Z,34.28
2024-01-11T07:44:55.437Z,34.10
2024-01-11T07:45:56.303Z,34.21
2024-01-11T07:46:59.177Z,34.41
2024-01-11T07:47:55.489Z,34.71
2024-01-11T07:48:55.576Z,34.74
2024-01-11T07:49:55.399Z,34.81
2024-01-11T07:50:55.430Z,35.02
2024-01-11T07:51:55.408Z,35.03
2024-01-11T07:52:55.458Z,34.93
2024-01-11T07:53:56.225Z,35.15
2024-01-11T07:54:55.404Z,35.24
2024-01-11T07:55:55.412Z,35.26
2024-01-11T07:56:55.428Z,35.22
2024-01-11T07:57:55.434Z,35.30
2024-01-11T07:58:55.477Z,35.36
2024-01-11T07:59:55.433Z,35.48
2024-01-11T08:00:55.652Z,35.54
2024-01-11T08:01:55.550Z,35.54
2024-01-11T08:02:55.520Z,35.51
2024-01-11T08:03:55.476Z,35.43
2024-01-11T08:04:55.423Z,35.30
2024-01-11T08:05:55.554Z,35.57
2024-01-11T08:06:55.518Z,36.02
2024-01-11T08:07:55.453Z,36.10
2024-01-11T08:08:55.481Z,35.99
2024-01-11T08:09:55.513Z,36.05
2024-01-11T08:10:55.406Z,35.78
2024-01-11T08:11:57.402Z,35.08
2024-01-11T08:12:55.414Z,34.61
2024-01-11T08:13:55.549Z,34.86
2024-01-11T08:14:55.415Z,34.81
2024-01-11T08:15:55.487Z,34.45
2024-01-11T08:16:55.494Z,34.32
2024-01-11T08:17:55.525Z,34.56
2024-01-11T08:18:55.437Z,34.52
2024-01-11T08:19:55.478Z,34.72
2024-01-11T08:20:55.446Z,34.39
2024-01-11T08:21:55.452Z,34.55
2024-01-11T08:22:55.449Z,34.96
2024-01-11T08:23:56.416Z,35.08
2024-01-11T08:24:55.428Z,35.20
2024-01-11T08:25:55.489Z,34.50
2024-01-11T08:26:55.502Z,35.18
2024-01-11T08:27:55.484Z,35.94
2024-01-11T08:28:55.518Z,35.38
2024-01-11T08:29:55.556Z,34.65
2024-01-11T08:30:55.757Z,34.10
2024-01-11T08:31:55.742Z,34.24
2024-01-11T08:32:55.830Z,34.80
2024-01-11T08:33:55.846Z,35.88
2024-01-11T08:34:55.870Z,36.26
2024-01-11T08:35:55.957Z,36.28
2024-01-11T08:36:55.961Z,36.60
2024-01-11T08:37:56.056Z,35.53
2024-01-11T08:38:56.140Z,34.47
2024-01-11T08:39:56.176Z,35.13
2024-01-11T08:40:56.251Z,33.91
2024-01-11T08:41:56.313Z,32.70
2024-01-11T08:42:56.364Z,32.97
2024-01-11T08:43:56.452Z,33.28
2024-01-11T08:44:56.978Z,31.46
2024-01-11T08:45:56.558Z,31.27
2024-01-11T08:46:57.276Z,31.09
2024-01-11T08:47:56.672Z,31.06
2024-01-11T08:48:56.790Z,31.07
2024-01-11T08:49:56.662Z,31.08
2024-01-11T08:50:56.765Z,31.07
2024-01-11T08:51:56.788Z,31.08
2024-01-11T08:52:57.169Z,31.07
2024-01-11T08:53:56.861Z,31.57
2024-01-11T08:54:56.851Z,32.10
2024-01-11T08:55:56.903Z,32.95
2024-01-11T08:56:57.244Z,32.88
2024-01-11T08:57:56.877Z,33.50
2024-01-11T08:58:56.888Z,34.91
2024-01-11T08:59:56.878Z,34.60
2024-01-11T09:00:56.970Z,35.33
2024-01-11T09:02:06.262Z,35.18
2024-01-11T09:02:59.015Z,35.09
2024-01-11T09:03:56.942Z,34.86
2024-01-11T09:04:56.913Z,34.28
2024-01-11T09:05:56.971Z,34.85
2024-01-11T09:06:57.400Z,34.51
2024-01-11T09:07:57.009Z,34.18
2024-01-11T09:08:57.777Z,34.09
2024-01-11T09:09:57.825Z,33.90
2024-01-11T09:10:57.134Z,34.07
2024-01-11T09:11:57.307Z,34.10
2024-01-11T09:12:57.768Z,33.82
2024-01-11T09:13:57.227Z,34.24
2024-01-11T09:14:57.246Z,33.71
2024-01-11T09:15:57.368Z,33.73
2024-01-11T09:16:57.338Z,33.49
2024-01-11T09:17:57.566Z,33.45
2024-01-11T09:18:57.424Z,32.99
2024-01-11T09:19:57.389Z,30.80
2024-01-11T09:20:57.533Z,30.78
2024-01-11T09:21:57.465Z,31.94
2024-01-11T09:22:57.556Z,32.23
2024-01-11T09:23:57.536Z,32.53
2024-01-11T09:24:57.654Z,32.71
2024-01-11T09:25:57.657Z,33.47
2024-01-11T09:26:57.783Z,34.38
2024-01-11T09:27:57.724Z,34.33
2024-01-11T09:28:57.812Z,33.87
2024-01-11T09:29:57.874Z,33.54
2024-01-11T09:30:57.984Z,33.09
2024-01-11T09:31:58.421Z,32.89
2024-01-11T09:32:58.376Z,32.79
2024-01-11T09:33:58.177Z,32.89
2024-01-11T09:34:58.740Z,32.92
2024-01-11T09:35:58.382Z,33.13
2024-01-11T09:36:58.298Z,33.26
2024-01-11T09:37:58.382Z,33.18
2024-01-11T09:38:58.484Z,33.12
2024-01-11T09:39:58.421Z,33.08
2024-01-11T09:40:58.449Z,33.67
2024-01-11T09:41:58.796Z,34.07
2024-01-11T09:42:59.405Z,34.80
2024-01-11T09:43:58.518Z,34.87
2024-01-11T09:44:58.580Z,34.78
2024-01-11T09:45:59.304Z,34.31
2024-01-11T09:46:58.740Z,33.81
2024-01-11T09:47:58.725Z,33.83
2024-01-11T09:48:58.721Z,33.85
2024-01-11T09:49:58.712Z,33.80
2024-01-11T09:50:58.743Z,33.91
2024-01-11T09:51:58.762Z,34.05
2024-01-11T09:52:58.768Z,33.88
2024-01-11T09:53:58.744Z,33.63
2024-01-11T09:54:58.866Z,33.55
2024-01-11T09:55:58.748Z,33.56
2024-01-11T09:56:58.797Z,33.40
2024-01-11T09:57:58.836Z,33.16
2024-01-11T09:58:58.956Z,33.07
2024-01-11T09:59:58.996Z,32.96
2024-01-11T10:00:58.867Z,32.84
2024-01-11T10:01:58.877Z,32.89
2024-01-11T10:02:58.951Z,33.03
2024-01-11T10:03:58.989Z,32.84
2024-01-11T10:04:58.941Z,32.56
2024-01-11T10:05:59.208Z,32.53
2024-01-11T10:06:59.124Z,32.53
2024-01-11T10:07:59.071Z,32.51
2024-01-11T10:08:59.087Z,32.31
2024-01-11T10:09:59.136Z,32.24
2024-01-11T10:10:59.212Z,32.22
2024-01-11T10:11:59.249Z,32.19
2024-01-11T10:12:59.325Z,32.16
2024-01-11T10:13:59.336Z,32.11
2024-01-11T10:14:59.385Z,32.09
2024-01-11T10:15:59.445Z,32.08
2024-01-11T10:16:59.506Z,32.10
2024-01-11T10:17:59.782Z,32.13
2024-01-11T10:18:59.774Z,32.14
2024-01-11T10:19:59.797Z,32.14
2024-01-11T10:20:59.839Z,32.14
2024-01-11T10:22:00.787Z,32.20
2024-01-11T10:22:59.874Z,32.26
2024-01-11T10:24:00.003Z,32.22
2024-01-11T10:24:59.972Z,32.16
2024-01-11T10:26:01.788Z,32.18
2024-01-11T10:27:00.281Z,32.24
2024-01-11T10:28:00.135Z,32.10
2024-01-11T10:29:00.306Z,32.02
2024-01-11T10:30:00.277Z,32.00
2024-01-11T10:31:00.615Z,32.26
2024-01-11T10:32:00.947Z,32.67
2024-01-11T10:33:00.734Z,33.37
2024-01-11T10:34:00.704Z,34.75
2024-01-11T10:35:01.250Z,34.84
2024-01-11T10:36:00.701Z,34.36
2024-01-11T10:37:00.760Z,33.43
2024-01-11T10:38:00.946Z,32.48
2024-01-11T10:39:01.301Z,31.96
2024-01-11T10:40:01.039Z,31.44
2024-01-11T10:41:01.101Z,31.26
2024-01-11T10:42:03.538Z,31.29
2024-01-11T10:43:01.086Z,31.29
2024-01-11T10:44:01.151Z,31.63
2024-01-11T10:45:01.154Z,31.52
2024-01-11T10:46:01.105Z,31.34
2024-01-11T10:47:01.114Z,31.50
2024-01-11T10:48:03.901Z,31.47
2024-01-11T10:49:01.186Z,31.57
2024-01-11T10:50:01.156Z,31.84
2024-01-11T10:51:01.113Z,31.99
2024-01-11T10:52:01.154Z,31.95
2024-01-11T10:53:01.151Z,32.15
2024-01-11T10:54:02.345Z,32.23
2024-01-11T10:55:01.111Z,32.34
2024-01-11T10:56:01.196Z,32.36
2024-01-11T10:57:01.139Z,32.50
2024-01-11T10:58:01.122Z,32.44
2024-01-11T10:59:01.332Z,32.26
2024-01-11T11:00:01.123Z,32.28
2024-01-11T11:01:01.195Z,32.26
2024-01-11T11:02:01.954Z,32.39
2024-01-11T11:03:01.309Z,32.26
2024-01-11T11:04:01.106Z,32.24
2024-01-11T11:05:01.169Z,32.23
2024-01-11T11:06:01.223Z,32.16
2024-01-11T11:07:01.115Z,32.14
2024-01-11T11:08:01.230Z,32.25
2024-01-11T11:09:01.117Z,32.34
2024-01-11T11:10:01.162Z,32.42
2024-01-11T11:11:01.157Z,32.52
2024-01-11T11:12:01.117Z,32.49
2024-01-11T11:13:01.305Z,32.46
2024-01-11T11:14:01.147Z,32.43
2024-01-11T11:15:01.127Z,32.29
2024-01-11T11:16:02.328Z,32.09
2024-01-11T11:17:01.264Z,31.96
2024-01-11T11:18:01.239Z,32.07
2024-01-11T11:19:01.199Z,32.19
2024-01-11T11:20:01.180Z,32.23
2024-01-11T11:21:01.175Z,32.05
2024-01-11T11:22:01.287Z,31.91
2024-01-11T11:23:01.291Z,31.87
2024-01-11T11:24:01.331Z,31.73
2024-01-11T11:25:01.413Z,31.66
2024-01-11T11:26:01.547Z,31.84
2024-01-11T11:27:02.012Z,33.47
2024-01-11T11:28:01.555Z,33.44
2024-01-11T11:29:02.276Z,33.31
2024-01-11T11:30:01.738Z,32.92
2024-01-11T11:31:01.676Z,32.73
2024-01-11T11:32:01.915Z,32.32
2024-01-11T11:33:02.029Z,32.10
2024-01-11T11:34:03.789Z,32.17
2024-01-11T11:35:02.142Z,32.16
2024-01-11T11:36:01.981Z,32.07
2024-01-11T11:37:02.037Z,31.85
2024-01-11T11:38:02.123Z,31.63
2024-01-11T11:39:02.795Z,31.52
2024-01-11T11:40:04.864Z,31.13
2024-01-11T11:41:02.387Z,30.95
2024-01-11T11:42:02.299Z,30.40
2024-01-11T11:43:02.817Z,30.00
2024-01-11T11:44:02.274Z,29.79
2024-01-11T11:45:02.239Z,29.68
2024-01-11T11:46:04.092Z,29.48
2024-01-11T11:47:02.269Z,29.48
2024-01-11T11:48:02.339Z,29.36
2024-01-11T11:49:02.332Z,29.33
2024-01-11T11:50:02.370Z,29.29
2024-01-11T11:51:02.404Z,29.42
2024-01-11T11:52:02.282Z,29.29
2024-01-11T11:53:02.345Z,29.43
2024-01-11T11:54:03.293Z,29.37
2024-01-11T11:55:02.433Z,29.34
2024-01-11T11:56:02.484Z,29.36
2024-01-11T11:57:02.549Z,29.48
2024-01-11T11:58:02.592Z,29.60
2024-01-11T11:59:02.654Z,29.49
2024-01-11T12:00:02.692Z,29.40
2024-01-11T12:01:02.736Z,29.40
2024-01-11T12:02:02.812Z,29.46
2024-01-11T12:03:03.840Z,29.63
2024-01-11T12:04:02.888Z,29.69
2024-01-11T12:05:03.036Z,29.20
2024-01-11T12:06:03.258Z,29.41
2024-01-11T12:07:03.108Z,29.29
2024-01-11T12:08:03.239Z,29.19
2024-01-11T12:09:03.213Z,28.75
2024-01-11T12:10:03.292Z,29.12
2024-01-11T12:11:03.391Z,29.46
2024-01-11T12:12:11.484Z,29.42
2024-01-11T12:13:04.483Z,28.96
2024-01-11T12:14:03.553Z,29.07
2024-01-11T12:15:03.468Z,28.63
2024-01-11T12:16:03.430Z,28.58
2024-01-11T12:17:03.548Z,28.72
2024-01-11T12:18:03.566Z,29.21
2024-01-11T12:19:03.533Z,30.12
2024-01-11T12:20:03.508Z,30.59
2024-01-11T12:21:03.565Z,31.22
2024-01-11T12:22:03.663Z,30.81
2024-01-11T12:23:03.775Z,29.71
2024-01-11T12:24:03.753Z,29.27
2024-01-11T12:25:03.753Z,29.08
2024-01-11T12:26:03.842Z,29.65
2024-01-11T12:27:03.787Z,29.90
2024-01-11T12:28:03.755Z,30.18
2024-01-11T12:29:03.899Z,30.32
2024-01-11T12:30:03.799Z,30.48
2024-01-11T12:31:03.772Z,30.54
2024-01-11T12:32:03.827Z,30.01
2024-01-11T12:33:03.985Z,29.61
2024-01-11T12:34:03.954Z,29.42
2024-01-11T12:35:03.945Z,29.34
2024-01-11T12:36:03.979Z,29.25
2024-01-11T12:37:04.004Z,29.26
2024-01-11T12:38:04.106Z,29.23
2024-01-11T12:39:04.188Z,29.24
2024-01-11T12:40:04.227Z,29.14
2024-01-11T12:41:04.319Z,29.07
2024-01-11T12:42:04.375Z,29.07
2024-01-11T12:43:04.578Z,29.06
2024-01-11T12:44:04.643Z,29.06
2024-01-11T12:45:04.624Z,29.04
2024-01-11T12:46:04.689Z,29.03
2024-01-11T12:47:04.753Z,29.00
2024-01-11T12:48:05.264Z,29.01
2024-01-11T12:49:04.992Z,29.03
2024-01-11T12:50:04.962Z,29.03
2024-01-11T12:51:13.735Z,29.02
2024-01-11T12:52:05.985Z,28.98
2024-01-11T12:53:05.006Z,28.97
2024-01-11T12:54:05.000Z,28.92